Klik op de webcam foto voor een grotere versieKlik op de webcam foto voor een grotere versie
Of klik hier voor
de webcam video


Bezoek onze andere website:Website of another weatherstation



No particular awareness of the weather is required.    There are no Weather-warnings

Nearby Airports - METAR Reports

   
EBBR - Vaartkom-Leuven
Updated: 18-07-2018 14:20
Clear    Wind: varies 6 km/h
Clear
Wind: Wind: varies 6 km/h
Temperature: 23°C
Dew Point: 10°C
Humidity: 44%
Barometer: 1019 hPa
Visibility: More than 10 km
Cloud details: Clear
EBBR 181220Z VRB03KT CAVOK 23/10 Q1019 NOSIG
EBAW - Antwerp
Updated: 18-07-2018 14:20
Clear    Wind: NNW 6 km/h
Clear
Wind: Wind: NNW 6 km/h
Temperature: 23°C
Dew Point: 11°C
Humidity: 47%
Barometer: 1018 hPa
Visibility: More than 10 km
Cloud details: Clear
EBAW 181220Z 34003KT 260V050 CAVOK 23/11 Q1018 NOSIG
EBLG - Li├Ęge
Updated: 18-07-2018 14:20
Clear    Wind: West 13 km/h
Clear
Wind: Wind: West 13 km/h
Temperature: 25°C
Dew Point: 8°C
Humidity: 34%
Barometer: 1019 hPa
Visibility: More than 10 km
Cloud details: Clear
EBLG 181220Z 27007KT 220V320 CAVOK 25/08 Q1019 NOSIG
EBCV - Mons/Bergen
Updated: 18-07-2018 14:25
Mostly Cloudy    Wind: West 11 km/h
Mostly Cloudy
Wind: Wind: West 11 km/h
Temperature: 24°C
Dew Point: 9°C
Humidity: 39%
Barometer: 1019 hPa
Clouds: Mostly Cloudy
Visibility: More than 10 km
Cloud details: Mostly Cloudy 1859.3 m
EBCV 181225Z AUTO 27006KT 9999 BKN061/// 24/09 Q1019 BLU
EHBK - Maastricht
Updated: 18-07-2018 14:25
Clear    Wind: varies 11 km/h
Clear
Wind: Wind: varies 11 km/h
Temperature: 25°C
Dew Point: 9°C
Humidity: 36%
Barometer: 1018 hPa
Clouds: Clear
Visibility: More than 10 km
Cloud details: Clear
EHBK 181225Z AUTO VRB06KT 9999 NCD 25/09 Q1018 NOSIG
ELLX - Luxemburg
Updated: 18-07-2018 14:20
Clear    Wind: varies 9 km/h
Clear
Wind: Wind: varies 9 km/h
Temperature: 25°C
Dew Point: 8°C
Humidity: 34%
Barometer: 1019 hPa
Visibility: More than 10 km
Cloud details: Clear
ELLX 181220Z VRB05KT CAVOK 25/08 Q1019 NOSIG
EBOS - Oostende
Updated: 18-07-2018 14:20
Few Clouds    Wind: NW 15 km/h
Few Clouds
Wind: Wind: NW 15 km/h
Temperature: 21°C
Dew Point: 13°C
Humidity: 60%
Barometer: 1019 hPa
Clouds: Few Clouds
Visibility: More than 10 km
Cloud details: Few Clouds 914.4 m
EBOS 181220Z 31008KT 280V340 9999 FEW030 21/13 Q1019 NOSIG
  

Script developed by  Saratoga-weather.org Adapted for the template by  Weerstation Leuven

You find our weather info also at:

UK Metoffice

WeatherCloud

European Weather Network

Weather Underground

Bernelux Weather Network

AWEKAS

WeatherlinkIP

Citizen Weather Observer Program (CWOP)

HAMweather, WeatherForYou, PWS Weather

Equipment we use:

Weather-station
Davis VUE

Weather-program
Meteobridge

Provider
Robohost

Davis VUE

Meteobridge

Robohost